Detall de PIREP

Printer-friendly versionPDF version

[2012/02/15 16:01:00]
Flight IATA:CT3232
Pilot Number:042
Company ICAO:CAT
Aircraft Type:B763/F
PAX:100
Departing Airport: LEPA
Destination Airport: LEMD
Alternate Airport:LEMG
Online: VATSIM
Route:TURIA UN733 PRADO
Flight Level:F350
No Slew and time accel
No pause
Crash detect
Detect pilot in Cockpit between each 30 and 45 minutes
16:01 Zero fuel Weight: 245127 Lbs, Fuel Weight: 161695 Lbs
16:01 VATSIM:LEPA 151530Z 24015KT 9999 FEW038 12/04 Q1023 NOSIG
16:01 VATSIM:LEMD 151530Z 35010KT 320V030 9999 FEW060 11/M03 Q1025 NOSIG
16:01 VOICE CATALONIAN
16:09 Parking Brakes off
16:15 Take-off
16:15 Take off Weight: 404651 Lbs
16:15 Wind: 000º @ 000 Knots Heading: 238º
16:15 POS N39º 33´ 04´´ E002º 43´ 09´´
16:15 Gear Up: 192 Knots
16:15 Flaps:3 at 192 Knots
16:15 Flaps:2 at 201 Knots
16:15 Flaps:1 at 220 Knots
16:15 Flaps:0 at 238 Knots
16:30 Wind:270º@025 Knots Heading: 271º Ground Speed: 428 Knots Altitude 33766 ft
16:30 TOC
16:30 Fuel Weight: 151505 Lb
16:42 TOD
16:42 Fuel Weight: 149184 Lb
16:45 Wind:270º@025 Knots Heading: 297º Ground Speed: 400 Knots Altitude 29583 ft
16:55 Flaps:1 at 226 Knots
17:00 Wind:270º@024 Knots Heading: 293º Ground Speed: 258 Knots Altitude 16000 ft
17:09 Flaps:2 at 213 Knots
17:10 Flaps:3 at 201 Knots
17:15 Wind:332º@006 Knots Heading: 178º Ground Speed: 185 Knots Altitude 4721 ft
17:16 Flaps:4 at 167 Knots
17:16 Gear Down: 169 Knots
17:16 Flaps:5 at 171 Knots
17:17 Flaps:4 at 171 Knots
17:17 Flaps:6 at 170 Knots
17:19 TouchDown:Rate -216 ft/min Speed: 161 Knots
17:19 VATSIM:LEMD 151700Z 01016KT 340V040 9999 FEW060 10/M02 Q1025 NOSIG
17:19 Land
17:19 Wind:000º@000 Knots
17:19 Heading: 180º
17:19 Flight Duration: 01:04
17:19 Landing Weight: 389185 Lbs
17:19 POS N40º 30´ 38´´ W003º 33´ 32´´
17:23 Parking brakes on
17:23 Block to Block Duration: 01:14
17:23 Final Fuel: 143509 Lbls
17:23 Spent Fuel: 18185 Lbls
17:23 Flight Length: 330 NM
17:23 TOD Land Length: 151 NM

Exportar CSV

Powered by Drupal - Modified by Danger4k